メインページ
METAR-TAF:

METAR-TAF

空港 :

コルカタ, インド

ネータージー・スバース・チャンドラ・ボース国際空港

緯度: 22-39N, 経度: 088-27E, 海抜: 4m

現時点の気象観測

当レポートは35分前の16:00(UTC)に作成
西/南西の風 4kt
気温 28°C
湿度 89%
気圧 1001 hPa
視程: 2800m
高度2000ftの雲は散在している
高度3000ftの雲はほとんどない, 積乱雲.
高度10000ftの千切れ雲あり
煙霧

METAR: VECC 221600Z 24004KT 2800 HZ SCT020 FEW030CB BKN100 28/26 Q1001 NOSIG

時間: 22:05 (16:35 UTC)

予報

当レポートは5時間35分前の11:00(UTC)に作成
予報は22日の 12時(UTC)から 23日の 18時(UTC)まで有効
の風 5kt
視程: 3200m
高度800ftの雲は散在している
高度10000ftの千切れ雲あり
小雨, 煙霧
23日の 06時(UTC)から 23日の 10時(UTC)まで一時的に
視程: 1500m
高度1500ftの雲は散在している
高度2500ftの雲はほとんどない, 積乱雲.
高度9000ftの曇り
激しい雷雨, 雨

TAF: VECC 221100Z 2212/2318 19005KT 3200 -RA HZ SCT008 BKN100 TEMPO 2306/2310 1500 TSRA SCT015 FEW025CB OVC090

4,000以上の空港の気象観測と天気予報(METAR報とTAF報)

利用可能な観測所は地図上に黄色い丸と赤い丸で示す。

丸の上にカーソルを重ねると観測所名を参照できる。

次にクリックすると気象観測と天気予報を参照できる。

マップの切り替え:黒色「×」印の緑ボタンをクリックして拡大、「-」印の緑ボタンをクリックして縮小、緑色の三角印をクリックして隣りの地図に切り替え


METAR-TAF: